createdAt,value
2018-01-30T00:00:59.709Z,2.13
2018-01-30T00:06:01.072Z,1.80
2018-01-30T00:11:02.464Z,2.10
2018-01-30T00:16:03.787Z,1.67
2018-01-30T00:21:05.144Z,1.90
2018-01-30T00:26:06.485Z,1.80
2018-01-30T00:31:07.904Z,1.93
2018-01-30T00:36:09.264Z,2.07
2018-01-30T00:41:11.375Z,2.90
2018-01-30T00:46:20.431Z,1.97
2018-01-30T00:51:22.534Z,2.97
2018-01-30T00:56:24.597Z,1.77
2018-01-30T01:01:26.007Z,2.10
2018-01-30T01:06:27.574Z,2.07
2018-01-30T01:11:28.924Z,1.77
2018-01-30T01:16:31.030Z,1.80
2018-01-30T01:21:33.087Z,3.00
2018-01-30T01:26:34.395Z,1.70
2018-01-30T01:31:35.726Z,4.00
2018-01-30T01:36:37.922Z,2.53
2018-01-30T01:41:39.202Z,1.70
2018-01-30T01:46:40.863Z,1.97
2018-01-30T01:51:42.166Z,1.87
2018-01-30T01:56:43.685Z,2.10
2018-01-30T02:01:45.758Z,2.70
2018-01-30T02:06:47.109Z,2.03
2018-01-30T02:11:48.420Z,2.47
2018-01-30T02:16:49.791Z,2.50
2018-01-30T02:21:51.123Z,4.00
2018-01-30T02:26:52.430Z,1.80
2018-01-30T02:31:53.748Z,2.63
2018-01-30T02:36:55.118Z,2.53
2018-01-30T02:41:57.159Z,2.83
2018-01-30T02:46:58.468Z,2.37
2018-01-30T02:51:59.803Z,3.10
2018-01-30T02:57:01.137Z,2.67
2018-01-30T03:02:02.458Z,2.87
2018-01-30T03:07:03.794Z,3.27
2018-01-30T03:12:05.890Z,2.27
2018-01-30T03:17:07.938Z,3.17
2018-01-30T03:22:09.226Z,2.50
2018-01-30T03:27:10.595Z,3.50
2018-01-30T03:32:11.950Z,2.63
2018-01-30T03:37:13.330Z,3.00
2018-01-30T03:42:14.657Z,3.50
2018-01-30T03:47:15.974Z,2.40
2018-01-30T03:52:17.295Z,2.97
2018-01-30T03:57:18.631Z,2.57
2018-01-30T04:02:19.941Z,3.00
2018-01-30T04:07:21.239Z,2.50
2018-01-30T04:12:22.602Z,2.80
2018-01-30T04:17:23.901Z,3.83
2018-01-30T04:22:25.230Z,1.90
2018-01-30T04:27:26.559Z,2.40
2018-01-30T04:32:27.897Z,3.23
2018-01-30T04:37:29.227Z,2.50
2018-01-30T04:42:31.337Z,2.27
2018-01-30T04:47:32.636Z,2.23
2018-01-30T04:52:33.990Z,3.40
2018-01-30T04:57:35.316Z,2.20
2018-01-30T05:02:36.639Z,2.70
2018-01-30T05:07:38.068Z,2.50
2018-01-30T05:12:39.473Z,3.80
2018-01-30T05:17:41.542Z,2.83
2018-01-30T05:22:42.869Z,3.40
2018-01-30T05:27:44.921Z,3.23
2018-01-30T05:32:46.576Z,2.60
2018-01-30T05:37:47.974Z,3.40
2018-01-30T05:42:49.368Z,3.37
2018-01-30T05:47:50.691Z,2.37
2018-01-30T05:52:52.026Z,2.30
2018-01-30T05:57:54.139Z,3.60
2018-01-30T06:02:56.284Z,2.33
2018-01-30T06:07:57.612Z,3.00
2018-01-30T06:12:58.938Z,2.80
2018-01-30T06:18:00.255Z,3.73
2018-01-30T06:23:01.602Z,3.87
2018-01-30T06:28:03.685Z,3.80
2018-01-30T06:33:05.072Z,3.00
2018-01-30T06:38:06.406Z,3.43
2018-01-30T06:43:07.736Z,3.27
2018-01-30T06:48:09.089Z,4.20
2018-01-30T06:53:10.415Z,4.50
2018-01-30T06:58:11.831Z,4.70
2018-01-30T07:03:13.192Z,5.50
2018-01-30T07:08:14.504Z,6.33
2018-01-30T07:13:15.838Z,5.30
2018-01-30T07:18:17.164Z,5.57
2018-01-30T07:23:18.484Z,5.33
2018-01-30T07:28:19.811Z,4.90
2018-01-30T07:33:21.155Z,4.60
2018-01-30T07:38:22.474Z,5.77
2018-01-30T07:43:24.533Z,5.97
2018-01-30T07:48:25.839Z,5.63
2018-01-30T07:53:27.163Z,6.80
2018-01-30T07:58:28.490Z,6.63
2018-01-30T08:03:29.824Z,5.53
2018-01-30T08:08:31.147Z,6.00
2018-01-30T08:13:32.471Z,6.10
2018-01-30T08:18:33.815Z,5.80
2018-01-30T08:23:35.237Z,5.60
2018-01-30T08:28:36.587Z,6.00
2018-01-30T08:33:37.965Z,6.10
2018-01-30T08:38:40.069Z,6.17
2018-01-30T08:43:41.378Z,6.70
2018-01-30T08:48:42.674Z,7.67
2018-01-30T08:53:44.024Z,7.77
2018-01-30T08:58:45.355Z,6.90
2018-01-30T09:03:46.678Z,8.47
2018-01-30T09:08:48.011Z,6.40
2018-01-30T09:13:50.075Z,8.00
2018-01-30T09:18:51.399Z,6.70
2018-01-30T09:23:53.460Z,6.70
2018-01-30T09:28:54.806Z,6.27
2018-01-30T09:33:57.015Z,6.60
2018-01-30T09:38:59.111Z,6.03
2018-01-30T09:44:00.483Z,7.33
2018-01-30T09:49:01.848Z,6.27
2018-01-30T09:54:03.183Z,6.30
2018-01-30T09:59:05.221Z,6.43
2018-01-30T10:04:06.550Z,6.20
2018-01-30T10:09:07.892Z,5.27
2018-01-30T10:14:09.217Z,6.83
2018-01-30T10:19:10.545Z,6.00
2018-01-30T10:24:12.679Z,6.27
2018-01-30T10:29:14.034Z,6.10
2018-01-30T10:34:15.398Z,5.43
2018-01-30T10:39:16.710Z,4.20
2018-01-30T10:44:18.051Z,4.17
2018-01-30T10:49:19.384Z,5.93
2018-01-30T10:54:20.691Z,5.90
2018-01-30T10:59:22.767Z,5.40
2018-01-30T11:04:24.106Z,5.00
2018-01-30T11:09:25.445Z,5.50
2018-01-30T11:14:26.756Z,4.37
2018-01-30T11:19:28.094Z,4.77
2018-01-30T11:24:29.415Z,5.80
2018-01-30T11:29:30.738Z,5.53
2018-01-30T11:34:32.850Z,6.07
2018-01-30T11:39:34.905Z,6.97
2018-01-30T11:44:36.242Z,6.00
2018-01-30T11:49:38.288Z,6.43
2018-01-30T11:54:39.621Z,6.20
2018-01-30T11:59:40.946Z,6.70
2018-01-30T12:04:42.303Z,6.43
2018-01-30T12:09:43.647Z,7.80
2018-01-30T12:14:44.980Z,6.93
2018-01-30T12:19:46.305Z,6.57
2018-01-30T12:24:47.635Z,6.53
2018-01-30T12:29:48.945Z,6.80
2018-01-30T12:34:50.288Z,5.03
2018-01-30T12:39:51.586Z,5.90
2018-01-30T12:44:52.916Z,3.90
2018-01-30T12:49:55.012Z,3.90
2018-01-30T12:54:56.354Z,5.37
2018-01-30T12:59:57.676Z,4.60
2018-01-30T13:04:59.041Z,4.97
2018-01-30T13:10:01.121Z,5.00
2018-01-30T13:15:02.498Z,5.90
2018-01-30T13:20:03.833Z,5.83
2018-01-30T13:25:05.227Z,4.80
2018-01-30T13:30:07.291Z,6.13
2018-01-30T13:35:09.371Z,5.10
2018-01-30T13:40:10.973Z,6.33
2018-01-30T13:45:12.492Z,5.43
2018-01-30T13:50:14.569Z,5.10
2018-01-30T13:55:15.960Z,6.03
2018-01-30T14:00:17.322Z,5.23
2018-01-30T14:05:18.662Z,4.60
2018-01-30T14:10:19.994Z,4.77
2018-01-30T14:15:21.318Z,5.57
2018-01-30T14:20:22.675Z,4.43
2018-01-30T14:25:24.031Z,5.40
2018-01-30T14:30:26.159Z,5.17
2018-01-30T14:35:27.518Z,6.07
2018-01-30T14:40:28.939Z,4.83
2018-01-30T14:45:30.319Z,4.43
2018-01-30T14:50:31.675Z,5.53
2018-01-30T14:55:33.015Z,5.00
2018-01-30T15:00:34.440Z,5.80
2018-01-30T15:05:35.807Z,7.30
2018-01-30T15:10:37.124Z,8.80
2018-01-30T15:15:38.489Z,10.30
2018-01-30T15:20:39.857Z,11.13
2018-01-30T15:25:41.193Z,10.70
2018-01-30T15:30:42.654Z,12.67
2018-01-30T15:35:44.010Z,11.40
2018-01-30T15:40:46.130Z,13.80
2018-01-30T15:45:47.512Z,15.43
2018-01-30T15:50:49.139Z,14.07
2018-01-30T15:55:50.721Z,15.80
2018-01-30T16:00:52.081Z,15.13
2018-01-30T16:05:54.203Z,16.10
2018-01-30T16:10:55.572Z,14.27
2018-01-30T16:15:57.700Z,15.70
2018-01-30T16:20:59.099Z,15.57
2018-01-30T16:26:00.467Z,15.40
2018-01-30T16:31:02.584Z,16.00
2018-01-30T16:36:04.674Z,14.13
2018-01-30T16:41:06.771Z,16.17
2018-01-30T16:46:08.084Z,13.97
2018-01-30T16:51:09.445Z,14.57
2018-01-30T16:56:10.750Z,13.83
2018-01-30T17:01:12.887Z,14.20
2018-01-30T17:06:14.201Z,15.47
2018-01-30T17:11:15.574Z,14.73
2018-01-30T17:16:16.887Z,14.57
2018-01-30T17:21:18.220Z,15.13
2018-01-30T17:26:20.323Z,18.00
2018-01-30T17:31:21.671Z,15.07
2018-01-30T17:36:23.150Z,14.07
2018-01-30T17:41:24.540Z,16.27
2018-01-30T17:46:25.875Z,16.27
2018-01-30T17:51:27.283Z,16.20
2018-01-30T17:56:29.200Z,14.83
2018-01-30T18:01:30.588Z,14.60
2018-01-30T18:06:32.638Z,13.70
2018-01-30T18:11:33.963Z,16.33
2018-01-30T18:16:35.602Z,16.90
2018-01-30T18:21:36.984Z,16.43
2018-01-30T18:26:38.374Z,16.53
2018-01-30T18:31:39.682Z,17.40
2018-01-30T18:36:41.037Z,19.40
2018-01-30T18:41:43.128Z,19.70
2018-01-30T18:46:44.455Z,18.90
2018-01-30T18:51:45.798Z,19.20
2018-01-30T18:56:47.122Z,20.80
2018-01-30T19:01:48.442Z,20.13
2018-01-30T19:06:49.800Z,21.77
2018-01-30T19:11:51.123Z,20.00
2018-01-30T19:16:52.462Z,19.30
2018-01-30T19:21:54.530Z,20.00
2018-01-30T19:26:55.986Z,21.57
2018-01-30T19:31:58.139Z,22.00
2018-01-30T19:36:59.514Z,21.67
2018-01-30T19:42:00.862Z,24.87
2018-01-30T19:47:02.274Z,22.30
2018-01-30T19:52:03.628Z,22.37
2018-01-30T19:57:05.696Z,23.10
2018-01-30T20:02:07.043Z,24.03
2018-01-30T20:07:08.414Z,23.10
2018-01-30T20:12:10.477Z,22.37
2018-01-30T20:17:17.982Z,22.43
2018-01-30T20:22:19.299Z,25.60
2018-01-30T20:27:20.612Z,24.70
2018-01-30T20:32:21.950Z,23.37
2018-01-30T20:37:23.308Z,26.30
2018-01-30T20:42:25.386Z,23.77
2018-01-30T20:47:26.721Z,26.27
2018-01-30T20:52:28.050Z,25.70
2018-01-30T20:57:29.560Z,25.73
2018-01-30T21:02:30.894Z,23.70
2018-01-30T21:07:32.960Z,25.90
2018-01-30T21:12:34.279Z,26.80
2018-01-30T21:17:36.423Z,23.10
2018-01-30T21:22:37.742Z,24.57
2018-01-30T21:27:39.140Z,26.43
2018-01-30T21:32:40.502Z,24.27
2018-01-30T21:37:41.948Z,23.63
2018-01-30T21:42:43.998Z,22.17
2018-01-30T21:47:45.723Z,22.20
2018-01-30T21:52:47.068Z,22.00
2018-01-30T21:57:48.455Z,23.57
2018-01-30T22:02:49.770Z,22.60
2018-01-30T22:07:51.162Z,23.63
2018-01-30T22:12:52.518Z,24.80
2018-01-30T22:17:53.896Z,21.13
2018-01-30T22:22:55.938Z,21.77
2018-01-30T22:27:57.254Z,22.20
2018-01-30T22:32:58.913Z,21.97
2018-01-30T22:38:00.242Z,23.30
2018-01-30T22:43:01.594Z,22.07
